Time;durP1;ratioP1;P1;durP2;ratioP2;P2;SDS_P1;SDS_P2;PMS_P1;PMS_P2;Temp;Humidity;BMP_temperature;BMP_pressure;BME280_temperature;BME280_humidity;BME280_pressure;Samples;Min_cycle;Max_cycle;Signal;HPM_P1;HPM_P2
2021/08/27 00:01:00;;;;;;;4.40;1.67;;;17.30;99.90;;;;;;6129170;23;20022;-75
2021/08/27 00:03:26;;;;;;;6.00;1.77;;;17.30;99.90;;;;;;6155622;23;20001;-73
2021/08/27 00:05:51;;;;;;;2.22;1.20;;;17.20;99.90;;;;;;6156047;23;20433;-72
2021/08/27 00:08:17;;;;;;;2.33;1.23;;;17.20;99.90;;;;;;6129636;23;20166;-83
2021/08/27 00:10:43;;;;;;;3.55;1.77;;;17.20;99.90;;;;;;6129600;23;20009;-74
2021/08/27 00:13:12;;;;;;;5.45;1.17;;;17.20;99.90;;;;;;6129183;23;20033;-72
2021/08/27 00:15:38;;;;;;;1.48;1.23;;;17.20;99.90;;;;;;6129532;23;20068;-70
2021/08/27 00:18:04;;;;;;;4.68;1.50;;;17.20;99.90;;;;;;6155502;23;20002;-80
2021/08/27 00:20:30;;;;;;;2.40;1.52;;;17.20;99.90;;;;;;6155924;23;20076;-71
2021/08/27 00:22:56;;;;;;;3.05;1.60;;;17.20;99.90;;;;;;6155601;23;20502;-77
2021/08/27 00:25:22;;;;;;;1.50;1.40;;;17.20;99.90;;;;;;6155678;23;20068;-71
2021/08/27 00:27:48;;;;;;;3.70;2.25;;;17.20;99.90;;;;;;6155558;23;19997;-72
2021/08/27 00:30:14;;;;;;;1.73;1.38;;;17.20;99.90;;;;;;6129386;23;20009;-74
2021/08/27 00:32:40;;;;;;;4.88;1.48;;;17.30;99.90;;;;;;6129510;23;20487;-73
2021/08/27 00:35:06;;;;;;;1.50;1.10;;;17.30;99.90;;;;;;6128872;23;20105;-81
2021/08/27 00:37:33;;;;;;;1.10;0.95;;;17.30;99.90;;;;;;6155589;23;20048;-73
2021/08/27 00:40:00;;;;;;;2.70;1.25;;;17.30;99.90;;;;;;6129484;23;20025;-71
2021/08/27 00:42:26;;;;;;;2.45;1.10;;;17.30;99.90;;;;;;6155425;23;20332;-77
2021/08/27 00:44:51;;;;;;;1.83;1.10;;;17.20;99.90;;;;;;6129292;23;20009;-73
2021/08/27 00:47:17;;;;;;;1.35;1.13;;;17.20;99.90;;;;;;6130336;23;20005;-73
2021/08/27 00:49:43;;;;;;;1.52;1.10;;;17.20;99.90;;;;;;6157512;23;20005;-78
2021/08/27 00:52:10;;;;;;;2.45;1.35;;;17.20;99.90;;;;;;6131054;23;20001;-79
2021/08/27 00:54:38;;;;;;;3.00;1.08;;;17.20;99.90;;;;;;6157564;23;20084;-75
2021/08/27 00:57:07;;;;;;;1.70;1.17;;;17.10;99.90;;;;;;6131413;23;20010;-73
2021/08/27 00:59:36;;;;;;;1.48;1.23;;;17.10;99.90;;;;;;6125850;23;20022;-72
2021/08/27 01:02:02;;;;;;;2.45;1.17;;;17.10;99.90;;;;;;6126083;23;20333;-78
2021/08/27 01:04:29;;;;;;;2.17;1.17;;;17.20;99.90;;;;;;6126840;23;20006;-80
2021/08/27 01:07:01;;;;;;;1.98;1.15;;;17.20;99.90;;;;;;6127187;23;20009;-79
2021/08/27 01:09:53;;;;;;;1.10;0.90;;;17.20;99.90;;;;;;6125491;23;20002;-80
2021/08/27 01:12:26;;;;;;;1.83;1.30;;;17.20;99.90;;;;;;6126638;23;20088;-79
2021/08/27 01:14:56;;;;;;;2.53;1.50;;;17.30;99.90;;;;;;6125556;23;20026;-79
2021/08/27 01:17:28;;;;;;;2.13;1.50;;;17.30;99.90;;;;;;6127201;23;20002;-79
2021/08/27 01:20:06;;;;;;;2.67;1.52;;;17.30;99.90;;;;;;6127138;23;20413;-78
2021/08/27 01:22:51;;;;;;;3.95;1.70;;;17.40;99.90;;;;;;6126917;23;20085;-79
2021/08/27 01:25:21;;;;;;;2.67;1.70;;;17.40;99.90;;;;;;6126408;23;19994;-78
2021/08/27 01:27:51;;;;;;;2.40;1.85;;;17.40;99.90;;;;;;6127146;23;20005;-79
2021/08/27 01:30:22;;;;;;;3.88;1.98;;;17.40;99.90;;;;;;6127374;23;20384;-77
2021/08/27 01:33:11;;;;;;;1.92;1.65;;;17.40;99.90;;;;;;6126911;23;19998;-80
2021/08/27 01:35:38;;;;;;;3.08;1.83;;;17.50;99.90;;;;;;6126781;23;20014;-80
2021/08/27 01:38:08;;;;;;;2.45;1.67;;;17.50;99.90;;;;;;6126845;23;20002;-78
2021/08/27 01:40:41;;;;;;;2.45;1.75;;;17.60;99.90;;;;;;6126771;23;20329;-79
2021/08/27 01:43:10;;;;;;;2.25;1.80;;;17.60;99.90;;;;;;6126899;23;20077;-79
2021/08/27 01:45:38;;;;;;;2.00;1.80;;;17.70;99.90;;;;;;6126871;23;20002;-78
2021/08/27 01:48:07;;;;;;;2.60;1.77;;;17.70;99.90;;;;;;6126904;23;20009;-79
2021/08/27 01:50:33;;;;;;;2.92;1.88;;;17.70;99.90;;;;;;6126699;23;20009;-78
2021/08/27 01:52:59;;;;;;;3.00;2.15;;;17.70;99.90;;;;;;6126672;23;20024;-79
2021/08/27 01:55:26;;;;;;;1.90;1.50;;;17.70;99.90;;;;;;6124719;23;20357;-78
2021/08/27 01:57:54;;;;;;;2.50;1.90;;;17.70;99.90;;;;;;6126121;23;20037;-77
2021/08/27 02:00:22;;;;;;;2.88;1.75;;;17.70;99.90;;;;;;6142713;23;20060;-79
2021/08/27 02:02:49;;;;;;;2.42;1.70;;;17.80;99.90;;;;;;6156140;23;20009;-79
2021/08/27 02:05:16;;;;;;;2.17;1.48;;;17.80;99.90;;;;;;6155956;23;20065;-78
2021/08/27 02:07:45;;;;;;;2.17;1.52;;;17.90;99.90;;;;;;6156039;23;20002;-78
2021/08/27 02:10:11;;;;;;;1.85;1.45;;;17.80;99.90;;;;;;6155914;23;20008;-78
2021/08/27 02:12:37;;;;;;;5.55;1.55;;;17.80;99.90;;;;;;6154286;23;20013;-77
2021/08/27 02:15:03;;;;;;;3.30;1.63;;;17.80;99.90;;;;;;6155667;23;20009;-79
2021/08/27 02:17:30;;;;;;;4.03;1.80;;;17.90;99.90;;;;;;6155795;23;20394;-79
2021/08/27 02:19:58;;;;;;;2.42;1.70;;;18.00;99.90;;;;;;6156522;23;20009;-80
2021/08/27 02:22:26;;;;;;;1.73;1.35;;;18.00;99.90;;;;;;6156812;23;20076;-77
2021/08/27 02:25:06;;;;;;;2.78;1.73;;;18.10;99.90;;;;;;6156760;23;20001;-79
2021/08/27 02:27:34;;;;;;;2.60;1.38;;;18.20;99.90;;;;;;6156637;23;20048;-78
2021/08/27 02:30:00;;;;;;;2.42;1.50;;;18.30;99.90;;;;;;6158005;23;19998;-78
2021/08/27 02:32:27;;;;;;;2.28;1.63;;;18.20;99.90;;;;;;6156772;23;20012;-79
2021/08/27 02:35:00;;;;;;;5.32;1.73;;;18.20;99.90;;;;;;6156608;23;20041;-81
2021/08/27 02:37:28;;;;;;;2.22;1.55;;;18.20;99.90;;;;;;6130526;23;20002;-78
2021/08/27 02:39:57;;;;;;;2.95;1.83;;;18.30;99.90;;;;;;6156574;23;20436;-79
2021/08/27 02:42:22;;;;;;;3.10;1.77;;;18.30;99.90;;;;;;6156515;23;20053;-81
2021/08/27 02:44:48;;;;;;;2.95;2.00;;;18.30;99.90;;;;;;6156354;23;19997;-79
2021/08/27 02:47:14;;;;;;;1.92;1.63;;;18.40;99.90;;;;;;6157006;23;20324;-79
2021/08/27 02:49:40;;;;;;;2.88;1.77;;;18.40;99.90;;;;;;6156715;23;20036;-78
2021/08/27 02:52:31;;;;;;;3.35;1.80;;;18.50;99.90;;;;;;6156334;23;20005;-79
2021/08/27 02:55:03;;;;;;;2.47;1.65;;;18.50;99.90;;;;;;6156609;23;20474;-78
2021/08/27 02:57:42;;;;;;;2.92;1.60;;;18.40;99.90;;;;;;6130337;23;20005;-79
2021/08/27 03:00:08;;;;;;;2.75;1.60;;;18.40;99.90;;;;;;6156376;23;20021;-78
2021/08/27 03:02:34;;;;;;;2.38;2.00;;;18.30;99.90;;;;;;6156246;23;20006;-79
2021/08/27 03:05:21;;;;;;;3.78;1.90;;;18.20;99.90;;;;;;6156669;23;20004;-79
2021/08/27 03:07:56;;;;;;;5.18;1.85;;;18.10;99.90;;;;;;6156614;23;20001;-78
2021/08/27 03:10:29;;;;;;;2.03;1.50;;;18.00;99.90;;;;;;6156026;23;20027;-79
2021/08/27 03:13:14;;;;;;;4.15;1.73;;;17.90;99.90;;;;;;6156238;23;20001;-79
2021/08/27 03:15:55;;;;;;;1.75;1.50;;;17.90;99.90;;;;;;6156546;23;20076;-79
2021/08/27 03:18:32;;;;;;;2.90;2.00;;;17.90;99.90;;;;;;6156219;23;20078;-78
2021/08/27 03:21:05;;;;;;;3.35;1.73;;;17.80;99.90;;;;;;6156624;23;20005;-79
2021/08/27 03:23:34;;;;;;;2.85;2.00;;;17.80;99.90;;;;;;6156225;23;20001;-78
2021/08/27 03:26:03;;;;;;;1.67;1.50;;;17.80;99.90;;;;;;6156139;23;20029;-79
2021/08/27 03:28:33;;;;;;;2.50;1.80;;;17.70;99.90;;;;;;6155993;23;20428;-78
2021/08/27 03:34:21;;;;;;;3.13;1.80;;;17.60;99.90;;;;;;6156503;23;20113;-78
2021/08/27 03:36:46;;;;;;;2.90;1.88;;;17.60;99.90;;;;;;6156182;23;20089;-78
2021/08/27 03:39:13;;;;;;;2.63;2.00;;;17.60;99.90;;;;;;6156072;23;20474;-78
2021/08/27 03:41:41;;;;;;;2.75;1.73;;;17.50;99.90;;;;;;6155989;23;20010;-79
2021/08/27 03:44:08;;;;;;;3.55;2.17;;;17.60;99.90;;;;;;6155983;23;20081;-78
2021/08/27 03:46:36;;;;;;;2.35;1.88;;;17.50;99.90;;;;;;6156004;23;20012;-79
2021/08/27 03:49:03;;;;;;;2.25;1.73;;;17.50;99.90;;;;;;6130346;23;20006;-79
2021/08/27 03:51:29;;;;;;;4.18;2.20;;;17.50;99.90;;;;;;6156077;23;20008;-78
2021/08/27 03:53:55;;;;;;;4.15;2.50;;;17.50;99.90;;;;;;6156168;23;19997;-78
2021/08/27 03:56:26;;;;;;;5.38;2.15;;;17.40;99.90;;;;;;6155824;23;20020;-78
2021/08/27 03:58:53;;;;;;;2.30;1.95;;;17.40;99.90;;;;;;6156161;23;20001;-78
2021/08/27 04:01:21;;;;;;;3.75;2.22;;;17.30;99.90;;;;;;6155524;23;20025;-79
2021/08/27 04:03:47;;;;;;;5.45;2.28;;;17.30;99.90;;;;;;6155831;23;19997;-78
2021/08/27 04:06:12;;;;;;;3.42;2.08;;;17.20;99.90;;;;;;6155817;23;20009;-78
2021/08/27 04:08:40;;;;;;;2.65;1.88;;;17.30;99.90;;;;;;6155654;23;20002;-78
2021/08/27 04:11:08;;;;;;;3.78;2.08;;;17.30;99.90;;;;;;6155738;23;20013;-80
2021/08/27 04:13:33;;;;;;;2.55;1.92;;;17.40;99.90;;;;;;6129316;23;20006;-80
2021/08/27 04:15:59;;;;;;;3.42;1.85;;;17.50;99.90;;;;;;6129656;23;20020;-78
2021/08/27 04:18:25;;;;;;;4.80;2.63;;;17.60;99.90;;;;;;6129411;23;20005;-79
2021/08/27 04:20:51;;;;;;;2.38;2.03;;;17.60;99.90;;;;;;6155530;23;20037;-78
2021/08/27 04:23:17;;;;;;;3.33;2.40;;;17.70;99.90;;;;;;6155786;23;20005;-79
2021/08/27 04:25:42;;;;;;;3.35;2.15;;;17.80;99.90;;;;;;6155634;23;20116;-78
2021/08/27 04:28:08;;;;;;;3.20;2.30;;;17.80;99.90;;;;;;6156079;23;20002;-78
2021/08/27 04:30:37;;;;;;;4.45;2.08;;;17.80;99.90;;;;;;6129552;23;20010;-78
2021/08/27 04:33:03;;;;;;;2.33;1.83;;;17.80;99.90;;;;;;6155801;23;20002;-78
2021/08/27 04:35:29;;;;;;;5.65;2.22;;;17.90;99.90;;;;;;6155674;23;20014;-78
2021/08/27 04:37:55;;;;;;;3.92;2.47;;;17.90;99.90;;;;;;6155965;23;20001;-79
2021/08/27 04:40:21;;;;;;;3.42;2.08;;;17.90;99.90;;;;;;6155581;23;20006;-79
2021/08/27 04:42:47;;;;;;;4.03;2.10;;;17.90;99.90;;;;;;6155545;23;20080;-78
2021/08/27 04:45:13;;;;;;;3.47;2.30;;;17.90;99.90;;;;;;6129697;23;20018;-79
2021/08/27 04:47:39;;;;;;;2.65;2.10;;;18.00;99.90;;;;;;6155693;23;20413;-78
2021/08/27 04:50:06;;;;;;;2.78;2.10;;;18.00;99.90;;;;;;6156025;23;20029;-79
2021/08/27 04:52:32;;;;;;;3.15;2.05;;;18.10;99.90;;;;;;6155347;23;20004;-78
2021/08/27 04:54:58;;;;;;;5.22;2.38;;;18.00;99.90;;;;;;6155462;23;20333;-78
2021/08/27 04:57:23;;;;;;;4.22;2.10;;;18.00;99.90;;;;;;6155692;23;19998;-78
2021/08/27 04:59:50;;;;;;;2.58;2.13;;;18.00;99.90;;;;;;6155627;23;20094;-79
2021/08/27 05:02:16;;;;;;;4.22;2.10;;;18.00;99.90;;;;;;6155613;23;20114;-78
2021/08/27 05:04:42;;;;;;;3.83;2.45;;;17.90;99.90;;;;;;6155698;23;20056;-79
2021/08/27 05:07:08;;;;;;;4.45;2.10;;;18.00;99.90;;;;;;6155728;23;20002;-78
2021/08/27 05:09:34;;;;;;;3.08;2.00;;;18.00;99.90;;;;;;6156215;23;20048;-78
2021/08/27 05:12:00;;;;;;;4.57;2.28;;;18.00;99.90;;;;;;6129353;23;20384;-79
2021/08/27 05:14:26;;;;;;;3.45;2.20;;;17.90;99.90;;;;;;6156117;23;20025;-78
2021/08/27 05:16:52;;;;;;;3.58;2.25;;;17.90;99.90;;;;;;6155517;23;20317;-78
2021/08/27 05:19:18;;;;;;;3.65;2.58;;;17.90;99.90;;;;;;6155599;23;20310;-79
2021/08/27 05:21:43;;;;;;;3.00;2.13;;;17.90;99.90;;;;;;6129537;23;20317;-79
2021/08/27 05:24:09;;;;;;;5.65;3.10;;;17.90;99.90;;;;;;6155603;23;20001;-81
2021/08/27 05:26:35;;;;;;;3.85;2.28;;;18.00;99.90;;;;;;6155135;23;20001;-79
2021/08/27 05:29:03;;;;;;;4.55;2.20;;;18.10;99.90;;;;;;6155614;23;20001;-79
2021/08/27 05:31:29;;;;;;;3.83;2.53;;;18.30;99.90;;;;;;6154163;23;20372;-79
2021/08/27 05:33:55;;;;;;;3.13;2.22;;;18.50;99.90;;;;;;6157248;23;20001;-78
2021/08/27 05:36:21;;;;;;;3.17;2.25;;;18.80;99.90;;;;;;6157456;23;20014;-80
2021/08/27 05:38:47;;;;;;;3.80;2.58;;;19.10;99.90;;;;;;6157289;23;19998;-80
2021/08/27 05:41:14;;;;;;;3.97;2.30;;;19.50;99.90;;;;;;6157052;23;20016;-82
2021/08/27 05:43:39;;;;;;;3.35;2.47;;;20.30;99.90;;;;;;6155806;23;20056;-79
2021/08/27 05:46:05;;;;;;;4.03;2.20;;;20.40;99.90;;;;;;6157389;23;20448;-80
2021/08/27 05:48:31;;;;;;;3.60;2.40;;;20.30;99.90;;;;;;6156988;23;20298;-77
2021/08/27 05:50:57;;;;;;;3.50;2.15;;;20.10;99.90;;;;;;6157189;23;20424;-79
2021/08/27 05:53:22;;;;;;;3.33;2.33;;;19.90;99.90;;;;;;6157265;23;20001;-79
2021/08/27 05:55:48;;;;;;;3.08;2.17;;;19.80;99.90;;;;;;6156795;23;20013;-78
2021/08/27 05:58:14;;;;;;;2.47;2.05;;;19.60;99.90;;;;;;6156947;23;19998;-80
2021/08/27 06:00:39;;;;;;;3.28;2.22;;;19.40;99.90;;;;;;6125785;23;20022;-79
2021/08/27 06:03:05;;;;;;;3.55;2.75;;;19.20;99.90;;;;;;6127455;23;20452;-80
2021/08/27 06:05:30;;;;;;;3.80;2.50;;;19.00;99.90;;;;;;6126093;23;20001;-80
2021/08/27 06:07:56;;;;;;;3.17;2.45;;;18.90;99.90;;;;;;6127486;23;20073;-81
2021/08/27 06:10:22;;;;;;;6.05;2.50;;;18.80;99.90;;;;;;6127395;23;20006;-79
2021/08/27 06:12:47;;;;;;;6.90;2.50;;;18.80;99.90;;;;;;6127296;23;20428;-80
2021/08/27 06:15:15;;;;;;;5.32;2.53;;;18.70;99.90;;;;;;6127581;23;20425;-79
2021/08/27 06:17:41;;;;;;;8.95;2.90;;;18.70;99.90;;;;;;6127598;23;20005;-79
2021/08/27 06:20:08;;;;;;;10.77;3.45;;;18.70;99.90;;;;;;6127590;23;20002;-78
2021/08/27 06:22:34;;;;;;;4.80;2.63;;;18.70;99.90;;;;;;6127071;23;20010;-80
2021/08/27 06:25:00;;;;;;;7.78;3.10;;;18.80;99.90;;;;;;6127285;23;20002;-81
2021/08/27 06:27:25;;;;;;;8.90;2.92;;;18.80;99.90;;;;;;6127396;23;20081;-79
2021/08/27 06:29:52;;;;;;;8.18;3.05;;;19.00;99.90;;;;;;6127314;23;20009;-79
2021/08/27 06:32:17;;;;;;;7.85;2.60;;;19.20;99.90;;;;;;6125748;23;20477;-79
2021/08/27 06:34:44;;;;;;;7.50;2.65;;;19.40;99.90;;;;;;6126927;23;20033;-81
2021/08/27 06:37:10;;;;;;;6.63;2.35;;;19.90;99.90;;;;;;6126933;23;20012;-78
2021/08/27 06:39:36;;;;;;;4.72;2.75;;;22.20;99.90;;;;;;6127279;23;19998;-79
2021/08/27 06:42:02;;;;;;;6.68;2.60;;;25.00;99.90;;;;;;6125686;23;20032;-80
2021/08/27 06:44:27;;;;;;;4.57;2.15;;;26.20;99.90;;;;;;6126930;23;20425;-80
2021/08/27 06:46:53;;;;;;;4.60;2.08;;;26.20;99.10;;;;;;6127188;23;20012;-78
2021/08/27 06:49:19;;;;;;;3.28;2.03;;;25.80;98.90;;;;;;6127184;23;20006;-80
2021/08/27 06:51:45;;;;;;;3.35;2.15;;;25.60;97.90;;;;;;6126992;23;20093;-80
2021/08/27 06:54:10;;;;;;;5.70;2.80;;;25.10;98.60;;;;;;6127428;23;20062;-80
2021/08/27 06:56:36;;;;;;;9.30;2.67;;;24.50;99.20;;;;;;6126985;23;20014;-80
2021/08/27 06:59:02;;;;;;;7.53;2.45;;;23.90;99.90;;;;;;6127254;23;20072;-78
2021/08/27 07:01:28;;;;;;;5.82;2.40;;;23.20;99.90;;;;;;6156281;23;20010;-81
2021/08/27 07:03:54;;;;;;;3.67;2.40;;;22.70;99.90;;;;;;6156520;23;20068;-80
2021/08/27 07:06:21;;;;;;;5.47;2.47;;;22.30;99.90;;;;;;6156404;23;20029;-80
2021/08/27 07:08:47;;;;;;;3.33;2.40;;;22.00;99.90;;;;;;6156379;23;20002;-79
2021/08/27 07:11:18;;;;;;;5.75;2.70;;;21.80;99.90;;;;;;6156016;23;20030;-80
2021/08/27 07:13:44;;;;;;;7.82;2.72;;;21.40;99.90;;;;;;6156832;23;20380;-80
2021/08/27 07:16:10;;;;;;;7.10;2.65;;;21.00;99.90;;;;;;6156380;23;20037;-80
2021/08/27 07:18:36;;;;;;;5.22;2.15;;;20.70;99.90;;;;;;6156124;23;20001;-81
2021/08/27 07:21:02;;;;;;;5.30;2.67;;;20.40;99.90;;;;;;6156207;23;20048;-81
2021/08/27 07:23:28;;;;;;;5.05;2.00;;;20.10;99.90;;;;;;6156593;23;20068;-80
2021/08/27 07:25:54;;;;;;;11.13;3.08;;;20.10;99.90;;;;;;6156246;23;20053;-81
2021/08/27 07:28:20;;;;;;;5.40;2.55;;;20.10;99.90;;;;;;6130166;23;20384;-81
2021/08/27 07:30:45;;;;;;;3.35;2.50;;;20.10;99.90;;;;;;6156360;23;20009;-80
2021/08/27 07:33:11;;;;;;;12.38;2.70;;;20.10;99.90;;;;;;6156156;23;20001;-78
2021/08/27 07:35:37;;;;;;;6.57;3.05;;;20.10;99.90;;;;;;6155607;23;20092;-80
2021/08/27 07:38:02;;;;;;;7.53;3.10;;;20.20;99.90;;;;;;6155977;23;20004;-79
2021/08/27 07:40:28;;;;;;;9.77;3.13;;;20.20;99.90;;;;;;6156012;23;20005;-81
2021/08/27 07:42:54;;;;;;;4.63;2.45;;;20.30;99.90;;;;;;6156167;23;20001;-81
2021/08/27 07:45:20;;;;;;;5.63;2.70;;;20.30;99.90;;;;;;6156081;23;20065;-82
2021/08/27 07:47:46;;;;;;;8.75;2.53;;;20.60;99.90;;;;;;6157779;23;20006;-81
2021/08/27 07:50:14;;;;;;;10.63;3.25;;;20.80;99.90;;;;;;6155641;23;20077;-80
2021/08/27 07:52:40;;;;;;;3.95;2.53;;;21.00;99.90;;;;;;6155810;23;20006;-80
2021/08/27 07:55:07;;;;;;;6.30;2.20;;;21.00;99.90;;;;;;6155703;23;20340;-82
2021/08/27 07:57:33;;;;;;;5.32;2.42;;;21.00;99.90;;;;;;6155556;23;19997;-81
2021/08/27 07:59:58;;;;;;;4.00;2.38;;;20.90;99.90;;;;;;6155662;23;20440;-82
2021/08/27 08:02:24;;;;;;;6.43;2.72;;;20.70;99.90;;;;;;6155650;23;20001;-84
2021/08/27 08:04:50;;;;;;;4.45;2.65;;;20.60;99.90;;;;;;6155722;23;20009;-83
2021/08/27 08:07:16;;;;;;;4.40;3.08;;;20.40;99.90;;;;;;6155802;23;20479;-85
2021/08/27 08:09:41;;;;;;;8.10;2.85;;;20.30;99.90;;;;;;6129458;23;20006;-81
2021/08/27 08:12:08;;;;;;;19.67;2.67;;;20.20;99.90;;;;;;6155746;23;20081;-81
2021/08/27 08:14:33;;;;;;;9.85;3.05;;;20.10;99.90;;;;;;6155886;23;20345;-81
2021/08/27 08:17:00;;;;;;;6.88;2.65;;;20.20;99.90;;;;;;6155412;23;20009;-84
2021/08/27 08:19:26;;;;;;;5.03;2.70;;;20.30;99.90;;;;;;6129226;23;20002;-83
2021/08/27 08:21:51;;;;;;;18.17;4.35;;;20.50;99.90;;;;;;6155712;23;20080;-84
2021/08/27 08:24:17;;;;;;;19.05;3.65;;;20.60;99.90;;;;;;6155826;23;20052;-81
2021/08/27 08:26:43;;;;;;;5.55;3.40;;;20.80;99.90;;;;;;6155718;23;20030;-84
2021/08/27 08:29:08;;;;;;;5.00;3.47;;;21.00;99.90;;;;;;6155715;23;20417;-85
2021/08/27 08:31:34;;;;;;;7.43;2.80;;;21.20;99.90;;;;;;6155498;23;20364;-82
2021/08/27 08:34:00;;;;;;;6.18;2.50;;;21.20;99.90;;;;;;6155300;23;20420;-83
2021/08/27 08:36:26;;;;;;;9.32;3.25;;;21.30;99.90;;;;;;6155405;23;20014;-81
2021/08/27 08:38:52;;;;;;;5.78;2.50;;;21.30;99.90;;;;;;6155897;23;19998;-82
2021/08/27 08:41:19;;;;;;;5.90;3.05;;;21.30;99.90;;;;;;6155519;23;19998;-81
2021/08/27 08:43:47;;;;;;;7.28;2.72;;;21.40;99.90;;;;;;6153821;23;20005;-86
2021/08/27 08:46:14;;;;;;;27.75;3.80;;;21.50;99.90;;;;;;6155456;23;20006;-81
2021/08/27 08:48:44;;;;;;;4.28;2.42;;;21.50;99.90;;;;;;6155337;23;20324;-82
2021/08/27 08:51:10;;;;;;;3.78;2.83;;;21.50;99.90;;;;;;6155575;23;20088;-82
2021/08/27 08:53:40;;;;;;;4.80;2.90;;;21.40;99.90;;;;;;6155272;23;20413;-82
2021/08/27 08:56:09;;;;;;;10.02;3.65;;;21.40;99.90;;;;;;6155506;23;20040;-82
2021/08/27 08:58:35;;;;;;;5.40;2.97;;;21.90;99.90;;;;;;6155994;23;20025;-82
2021/08/27 09:01:02;;;;;;;4.78;2.88;;;22.30;99.90;;;;;;6155243;23;20018;-82
2021/08/27 09:03:27;;;;;;;4.55;2.78;;;23.00;99.90;;;;;;6155328;23;20084;-84
2021/08/27 09:05:53;;;;;;;14.70;3.50;;;23.60;99.90;;;;;;6155218;23;20026;-87
2021/08/27 09:08:42;;;;;;;4.78;2.35;;;23.90;99.90;;;;;;6156810;23;20025;-86
2021/08/27 09:11:23;;;;;;;3.72;2.50;;;24.30;99.90;;;;;;6157390;23;19998;-84
2021/08/27 09:13:51;;;;;;;4.35;2.13;;;24.80;99.90;;;;;;6157661;23;20070;-87
2021/08/27 09:16:18;;;;;;;12.05;3.38;;;25.30;99.20;;;;;;6157290;23;20416;-81
2021/08/27 09:18:46;;;;;;;5.93;2.22;;;25.60;98.40;;;;;;6157161;23;20008;-85
2021/08/27 09:21:30;;;;;;;19.08;3.25;;;25.50;96.40;;;;;;6157365;23;20009;-85
2021/08/27 09:24:25;;;;;;;5.20;2.92;;;25.20;96.00;;;;;;6157244;23;20014;-86
2021/08/27 09:27:01;;;;;;;3.85;2.70;;;24.70;96.50;;;;;;6126943;23;20048;-79
2021/08/27 09:29:45;;;;;;;4.78;2.55;;;24.00;98.20;;;;;;6157341;23;20001;-82
2021/08/27 09:32:25;;;;;;;4.03;2.53;;;23.50;99.40;;;;;;6157144;23;20429;-81
2021/08/27 09:35:23;;;;;;;4.13;2.70;;;23.00;99.60;;;;;;6157065;23;20438;-80
2021/08/27 09:37:51;;;;;;;9.95;2.78;;;22.70;99.90;;;;;;6157683;23;20371;-84
2021/08/27 09:40:20;;;;;;;5.00;3.30;;;22.60;99.90;;;;;;6157231;23;20415;-82
2021/08/27 09:42:50;;;;;;;3.60;2.65;;;22.60;99.90;;;;;;6130875;23;20068;-86
2021/08/27 09:45:18;;;;;;;4.20;2.93;;;22.50;99.90;;;;;;6157100;23;20005;-81
2021/08/27 09:47:57;;;;;;;5.28;3.03;;;22.40;99.90;;;;;;6155182;23;20428;-82
2021/08/27 09:50:25;;;;;;;6.70;3.00;;;22.40;99.90;;;;;;6156755;23;20001;-83
2021/08/27 09:52:53;;;;;;;7.80;3.30;;;22.50;99.90;;;;;;6156946;23;20451;-82
2021/08/27 09:55:19;;;;;;;6.18;2.90;;;22.80;99.90;;;;;;6156835;23;20515;-82
2021/08/27 09:57:45;;;;;;;5.65;2.78;;;23.20;99.90;;;;;;6156934;23;20001;-80
2021/08/27 10:00:21;;;;;;;4.75;2.70;;;23.60;99.90;;;;;;6125506;23;20025;-86
2021/08/27 10:02:47;;;;;;;3.15;2.45;;;23.80;99.50;;;;;;6127401;23;20002;-82
2021/08/27 10:05:14;;;;;;;3.17;2.30;;;23.80;99.80;;;;;;6125640;23;20065;-82
2021/08/27 10:07:41;;;;;;;7.40;2.35;;;23.70;99.50;;;;;;6126927;23;20048;-79
2021/08/27 10:10:09;;;;;;;3.10;2.42;;;23.60;99.90;;;;;;6127540;23;20006;-81
2021/08/27 10:12:38;;;;;;;4.53;2.50;;;23.40;99.90;;;;;;6127305;23;20392;-80
2021/08/27 10:15:05;;;;;;;3.03;2.25;;;23.10;99.70;;;;;;6127356;23;20002;-82
2021/08/27 10:17:33;;;;;;;4.00;2.60;;;22.90;99.90;;;;;;6127185;23;20426;-83
2021/08/27 10:19:59;;;;;;;5.32;2.65;;;22.80;99.90;;;;;;6127130;23;20031;-85
2021/08/27 10:22:25;;;;;;;7.97;2.72;;;22.80;99.90;;;;;;6127199;23;20006;-80
2021/08/27 10:24:51;;;;;;;7.70;2.75;;;22.80;99.90;;;;;;6127479;23;20002;-83
2021/08/27 10:27:17;;;;;;;4.70;2.67;;;22.90;99.90;;;;;;6128597;23;20002;-81
2021/08/27 10:29:54;;;;;;;12.57;2.95;;;23.00;99.90;;;;;;6127159;23;20053;-84
2021/08/27 10:32:38;;;;;;;7.22;2.88;;;23.10;99.90;;;;;;6128066;23;20002;-81
2021/08/27 10:35:08;;;;;;;6.18;3.10;;;23.00;99.90;;;;;;6127062;23;20001;-82
2021/08/27 10:37:45;;;;;;;4.78;2.92;;;22.90;99.90;;;;;;6126858;23;20085;-79
2021/08/27 10:40:23;;;;;;;8.65;3.10;;;22.90;99.90;;;;;;6127231;23;20041;-82
2021/08/27 10:42:51;;;;;;;4.65;3.10;;;22.90;99.90;;;;;;6126921;23;20009;-83
2021/08/27 10:45:39;;;;;;;5.25;2.47;;;22.80;99.90;;;;;;6126142;23;20006;-83
2021/08/27 10:48:24;;;;;;;5.50;2.65;;;22.90;99.90;;;;;;6127110;23;20005;-84
2021/08/27 10:50:52;;;;;;;4.60;2.80;;;22.90;99.90;;;;;;6126870;23;20329;-81
2021/08/27 10:53:25;;;;;;;5.15;2.75;;;23.00;99.90;;;;;;6126838;23;20001;-84
2021/08/27 10:55:52;;;;;;;7.47;2.22;;;23.20;99.90;;;;;;6126898;23;20416;-83
2021/08/27 10:58:22;;;;;;;5.15;2.72;;;23.10;99.90;;;;;;6126777;23;19998;-79
2021/08/27 11:00:52;;;;;;;6.15;2.35;;;23.20;99.90;;;;;;6148622;23;20021;-83
2021/08/27 11:03:21;;;;;;;5.37;2.73;;;23.30;99.90;;;;;;6156351;23;20400;-82
2021/08/27 11:05:50;;;;;;;7.38;2.78;;;23.40;99.90;;;;;;6156032;23;20017;-80
2021/08/27 11:08:25;;;;;;;4.90;2.45;;;23.40;99.60;;;;;;6156045;23;20332;-88
2021/08/27 11:11:17;;;;;;;3.33;2.83;;;23.50;99.30;;;;;;6156581;23;20009;-87
2021/08/27 11:13:43;;;;;;;3.75;2.72;;;23.50;99.20;;;;;;6156367;23;20024;-84
2021/08/27 11:16:23;;;;;;;5.78;2.75;;;23.40;99.90;;;;;;6156209;23;20164;-87
2021/08/27 11:18:50;;;;;;;5.40;2.75;;;23.40;99.90;;;;;;6129855;23;20344;-82
2021/08/27 11:21:47;;;;;;;7.53;2.88;;;23.60;99.80;;;;;;6156216;23;20029;-80
2021/08/27 11:24:22;;;;;;;4.30;2.75;;;23.80;99.80;;;;;;6075965;23;20016;-82
2021/08/27 11:26:56;;;;;;;4.13;2.40;;;24.10;99.50;;;;;;6156007;23;19994;-82
2021/08/27 11:29:29;;;;;;;5.22;2.80;;;24.20;97.90;;;;;;6156000;23;20076;-83
2021/08/27 11:31:55;;;;;;;4.95;3.10;;;24.20;97.70;;;;;;6155812;23;20053;-82
2021/08/27 11:34:25;;;;;;;4.97;2.50;;;24.30;97.80;;;;;;6155955;23;20006;-82
2021/08/27 11:36:51;;;;;;;4.93;2.88;;;24.30;98.00;;;;;;6155888;23;20016;-83
2021/08/27 11:39:16;;;;;;;5.60;3.03;;;24.30;97.10;;;;;;6156061;23;20001;-83
2021/08/27 11:41:43;;;;;;;9.00;2.80;;;24.30;97.40;;;;;;6156524;23;20006;-82
2021/08/27 11:44:12;;;;;;;6.43;2.55;;;24.40;98.20;;;;;;6155679;23;20417;-83
2021/08/27 11:46:39;;;;;;;5.45;2.95;;;24.60;96.40;;;;;;6156151;23;20005;-81
2021/08/27 11:49:15;;;;;;;4.72;2.60;;;24.70;96.30;;;;;;6156230;23;20002;-81
2021/08/27 11:52:02;;;;;;;3.45;2.67;;;24.90;96.20;;;;;;6155983;23;20005;-82
2021/08/27 11:54:28;;;;;;;3.60;2.38;;;25.10;95.20;;;;;;6152892;23;20064;-80
2021/08/27 11:56:57;;;;;;;2.60;2.28;;;25.30;93.50;;;;;;6155943;23;20429;-80
2021/08/27 11:59:25;;;;;;;2.95;2.50;;;25.20;93.10;;;;;;6155521;23;20524;-80
2021/08/27 12:01:51;;;;;;;4.70;2.30;;;25.20;92.50;;;;;;6156271;23;20381;-80
2021/08/27 12:04:29;;;;;;;3.60;2.30;;;24.90;91.00;;;;;;6129811;23;20014;-82
2021/08/27 12:07:13;;;;;;;7.80;2.35;;;24.50;90.60;;;;;;6129765;23;20009;-80
2021/08/27 12:09:40;;;;;;;3.58;2.30;;;24.40;91.00;;;;;;6155804;23;20068;-80
2021/08/27 12:12:07;;;;;;;5.45;2.88;;;24.30;91.40;;;;;;6155819;23;20025;-80
2021/08/27 12:14:52;;;;;;;6.95;2.63;;;24.10;91.80;;;;;;6155716;23;20048;-81
2021/08/27 12:17:23;;;;;;;8.18;3.00;;;24.00;91.90;;;;;;6129785;23;20436;-81
2021/08/27 12:19:51;;;;;;;4.13;2.50;;;23.90;91.70;;;;;;6155893;23;20416;-82
2021/08/27 12:22:18;;;;;;;4.40;2.75;;;23.90;91.70;;;;;;6157727;23;20005;-78
2021/08/27 12:24:46;;;;;;;4.65;2.35;;;24.00;91.60;;;;;;6129665;23;20002;-79
2021/08/27 12:27:12;;;;;;;9.55;2.90;;;24.10;91.80;;;;;;6155982;23;20321;-80
2021/08/27 12:29:38;;;;;;;4.53;2.33;;;24.30;91.30;;;;;;6155459;23;20010;-82
2021/08/27 12:32:06;;;;;;;3.83;2.42;;;24.30;91.70;;;;;;6155742;23;20073;-81
2021/08/27 12:34:31;;;;;;;3.30;2.00;;;24.50;91.60;;;;;;6155971;23;20064;-82
2021/08/27 12:36:57;;;;;;;4.97;2.67;;;24.50;91.20;;;;;;6155450;23;20021;-82
2021/08/27 12:39:23;;;;;;;4.00;2.60;;;24.40;91.50;;;;;;6129699;23;20002;-81
2021/08/27 12:41:48;;;;;;;2.90;1.92;;;24.50;91.60;;;;;;6155647;23;20375;-81
2021/08/27 12:44:16;;;;;;;4.95;2.50;;;24.50;91.70;;;;;;6131212;23;20328;-80
2021/08/27 12:46:47;;;;;;;6.80;3.63;;;24.50;91.50;;;;;;6157639;23;20008;-81
2021/08/27 12:49:23;;;;;;;5.17;2.90;;;24.60;91.50;;;;;;6157734;23;20016;-80
2021/08/27 12:51:54;;;;;;;3.90;2.63;;;24.80;91.70;;;;;;6157821;23;20005;-80
2021/08/27 12:54:22;;;;;;;7.53;2.60;;;24.90;91.00;;;;;;6157423;23;20076;-81
2021/08/27 12:57:07;;;;;;;3.97;2.47;;;24.90;91.90;;;;;;6157899;23;20097;-82